Terminal Aerodrome Forecast
Issued by NWS

Home | Current Version | Previous Version | Graphics & Text | Print | Product List | Glossary On
Versions: 1 2 3 4 5 6 7 8 9 10 11 12 13 14 15 16
000
FTUS43 KICT 161137
TAFCNU
TAF
KCNU 161137Z 1612/1712 32013G22KT P6SM OVC022
     FM161700 32017G22KT P6SM SCT025
     FM162000 32013KT P6SM SCT035
     FM162300 36007KT P6SM BKN250=

USA.gov is the U.S. government's official web portal to all federal, state and local government web resources and services.